• Join FlightAware (Why Join?)
  • Login
  • US Flag 
08:05AM EDT


 

Airport Tracker/Info


-or-


 

Live Flight TrackerFlight Track Log ✈ RPA3228 ✈ 13-Sep-2013 ✈ KBNA - KDCA

Flight Track Log - Related Links

Times and Time Zones

All times are in EDT time to prevent confusion due to time zone crossing. See the RPA3228 flight status page for this flight to view local times or setup timezone preferences in your user account.

Time Position Orientation Groundspeed Altitude Reporting Facility
EDT Latitude Longitude Course Direction KTS MPH feet Rate Location/Type
07:46AM 36.1333 -86.6833 56° Northeast 133 153 1,300  Level Nashville TRACON
07:46AM 36.1333 -86.7167 270° West 175 201 2,500 2,520 Climbing Nashville TRACON
07:47AM 36.1667 -86.7833 302° West 257 296 5,400 3,360 Climbing Nashville TRACON
07:48AM 36.2083 -86.7583 26° Northeast 293 337 8,300 3,420 Climbing Memphis Center
07:49AM 36.2921 -86.1734 68° East  Level Estimated
07:49AM 36.2072 -86.6478 91° East 342 394 11,300  Level Memphis Center
07:50AM 36.3336 -86.0469 68° East  Level Estimated
07:50AM 36.2058 -86.5269 91° East 380 437 14,500  Level Memphis Center
07:51AM 36.3751 -85.9203 56° Northeast  Level Estimated
07:51AM 36.2039 -86.4064 91° East 380 437 16,600  Level Memphis Center
07:52AM 36.2019 -86.2753 91° East 370 426 19,100 2,340 Climbing Memphis Center
07:53AM 36.1994 -86.1389 91° East 386 444 21,300 2,040 Climbing Memphis Center
07:55AM 36.2861 -85.8772 68° East 416 479 25,400 1,860 Climbing Indianapolis Center
07:56AM 36.3464 -85.7469 60° Northeast 425 489 27,200 1,560 Climbing Indianapolis Center
07:57AM 36.4086 -85.6153 60° Northeast 437 503 28,700 1,380 Climbing Indianapolis Center
07:58AM 36.4742 -85.4792 59° Northeast 454 522 30,100 1,080 Climbing Indianapolis Center
07:59AM 36.5403 -85.3400 59° Northeast 464 534 31,000 420 Climbing Indianapolis Center
08:00AM 36.6053 -85.1958 61° Northeast 474 545 31,000  Level Indianapolis Center
08:01AM 36.6561 -85.0431 67° East 477 549 31,000  Level Indianapolis Center
08:02AM 36.7039 -84.8872 69° East 478 550 31,000  Level Indianapolis Center
08:03AM 36.7611 -84.6994 69° East 481 554 31,000  Level Indianapolis Center
08:04AM 36.8083 -84.5414 69° East 483 556 31,000  Level Indianapolis Center
08:05AM 36.8550 -84.3864 69° East 487 560 31,000  Level Indianapolis Center
08:07AM 36.9036 -84.2286 69° East 486 559 31,000  Level Indianapolis Center
08:08AM 36.9500 -84.0692 70° East 487 560 31,000  Level Indianapolis Center
08:09AM 36.9978 -83.9114 69° East 484 557 31,000  Level Indianapolis Center
08:10AM 37.0439 -83.7542 70° East 482 555 31,000  Level Indianapolis Center
08:11AM 37.0900 -83.5983 70° East 478 550 31,000  Level Indianapolis Center
08:12AM 37.1422 -83.4161 70° East 474 545 31,000  Level Indianapolis Center
08:13AM 37.1883 -83.2589 70° East 476 548 31,000  Level Indianapolis Center
08:14AM 37.2344 -83.1039 69° East 472 543 31,000  Level Indianapolis Center
08:15AM 37.2786 -82.9475 70° East 471 542 31,000  Level Indianapolis Center
08:16AM 37.3231 -82.7908 70° East 473 544 31,000  Level Indianapolis Center
08:17AM 37.3664 -82.6353 71° East 470 541 31,000  Level Indianapolis Center
08:18AM 37.4111 -82.4794 70° East 472 543 31,000  Level Indianapolis Center
08:19AM 37.4544 -82.3233 71° East 472 543 31,000  Level Indianapolis Center
08:20AM 37.4981 -82.1678 70° East 471 542 31,000  Level Indianapolis Center
08:21AM 37.5417 -82.0111 71° East 472 543 31,000  Level Indianapolis Center
08:22AM 37.5853 -81.8525 71° East 477 549 31,000  Level Indianapolis Center
08:23AM 37.6353 -81.6689 71° East 474 545 31,000  Level Indianapolis Center
08:24AM 37.6761 -81.5097 72° East 476 548 31,000  Level Indianapolis Center
08:25AM 37.7186 -81.3592 70° East 478 550 31,000  Level Indianapolis Center
08:26AM 37.7597 -81.2036 71° East 480 552 31,000  Level Indianapolis Center
08:27AM 37.8169 -81.0214 68° East 476 548 31,000  Level Indianapolis Center
08:28AM 37.8644 -80.8875 66° East 479 551 31,000  Level Indianapolis Center
08:29AM 37.9175 -80.7353 66° East 477 549 31,000  Level Indianapolis Center
08:30AM 37.9836 -80.5508 65° Northeast 480 552 31,000  Level Indianapolis Center
08:31AM 38.0389 -80.3925 66° East 477 549 31,000  Level Indianapolis Center
08:32AM 38.0917 -80.2411 66° East 480 552 31,000  Level Indianapolis Center
08:33AM 38.1450 -80.0908 66° East 480 552 31,000  Level Indianapolis Center
08:34AM 38.1992 -79.9375 66° East 483 556 31,000  Level Indianapolis Center
08:35AM 38.2531 -79.7844 66° East 485 558 31,000  Level Indianapolis Center
08:36AM 38.3231 -79.6014 64° Northeast 474 545 31,000  Level Washington Center
08:37AM 38.3761 -79.4453 67° East 474 545 31,000 -300 Level Washington Center
08:38AM 38.4228 -79.2967 68° East 484 557 30,400 -1,680 Descending Washington Center
08:39AM 38.4547 -79.1311 76° East 484 557 27,800 -1,740 Descending Washington Center
08:40AM 38.4844 -78.9656 77° East 484 557 27,000 -1,320 Descending Washington Center
08:41AM 38.5081 -78.7967 80° East 484 557 25,200 -2,160 Descending Washington Center
08:42AM 38.5350 -78.6333 78° East 479 551 22,800 -1,860 Descending Washington Center
08:43AM 38.5597 -78.4778 78° East 469 540 21,600 -1,380 Descending Washington Center
08:44AM 38.5842 -78.3219 79° East 457 526 20,100 -1,800 Descending Washington Center
08:45AM 38.6208 -78.1719 73° East 444 511 18,000 -1,920 Descending Washington Center
08:46AM 38.6656 -78.0325 68° East 431 496 16,200 -1,860 Descending Washington Center
08:47AM 38.7078 -77.9036 67° East 414 476 14,300 -1,860 Descending Washington Center
08:48AM 38.7536 -77.7958 61° Northeast 374 430 12,600 -1,560 Descending Washington Center
08:49AM 38.8156 -77.7069 48° Northeast 344 396 11,200 -1,380 Descending Washington Center
08:50AM 38.8547 -77.6069 63° Northeast 314 361 9,900 -1,380 Descending Washington Center
08:51AM 38.8964 -77.4933 65° Northeast 308 354 8,500 -1,440 Descending Washington Center
08:52AM 38.8833 -77.3889 99° East 289 333 7,000 -1,080 Descending Washington Center
08:53AM 38.8333 -77.2667 118° Southeast 289 333 6,100 -480 Descending Potomac TRACON
08:55AM 38.7833 -77.1833 128° Southeast 289 333 6,000 -900 Descending Potomac TRACON
08:55AM 38.7500 -77.1167 123° Southeast 283 326 4,300 -1,020 Descending Potomac TRACON
08:56AM 38.6667 -77.1000 171° South 229 264 4,100 -300 Descending Potomac TRACON
08:57AM 38.6333 -77.0667 142° Southeast 224 258 3,800 -780 Descending Potomac TRACON
08:58AM 38.6667 -77.0333 38° Northeast 183 211 2,700 -720 Descending Potomac TRACON
08:59AM 38.7167 -77.0167 15° North 157 181 2,500 -420 Descending Potomac TRACON
09:00AM 38.7500 -77.0333 339° North 156 180 1,900 -720 Descending Potomac TRACON
09:01AM 38.7833 -77.0167 21° North 150 173 1,200 -720 Descending Potomac TRACON
09:02AM 38.8167 -77.0167 360° North 118 136 600 -600 Descending Potomac TRACON